Time;durP1;ratioP1;P1;durP2;ratioP2;P2;SDS_P1;SDS_P2;PMS_P1;PMS_P2;Temp;Humidity;BMP_temperature;BMP_pressure;BME280_temperature;BME280_humidity;BME280_pressure;Samples;Min_cycle;Max_cycle;Signal;HPM_P1;HPM_P2
2022/07/28 00:00:35;;;;;;;3.57;1.00;;;14.20;99.90;;;;;;4975517;28;20783;-73
2022/07/28 00:03:00;;;;;;;3.43;1.33;;;14.20;99.90;;;;;;4975420;28;20641;-73
2022/07/28 00:05:26;;;;;;;2.60;1.53;;;14.20;99.90;;;;;;4974812;28;20664;-73
2022/07/28 00:07:52;;;;;;;1.37;1.20;;;14.20;99.90;;;;;;4975127;28;20201;-72
2022/07/28 00:10:17;;;;;;;2.07;1.30;;;14.10;99.90;;;;;;4975391;28;20178;-74
2022/07/28 00:12:43;;;;;;;3.03;1.23;;;14.10;99.90;;;;;;4975148;28;20684;-74
2022/07/28 00:15:09;;;;;;;1.50;1.27;;;14.00;99.90;;;;;;4974699;28;20635;-73
2022/07/28 00:17:35;;;;;;;3.97;1.50;;;14.00;99.90;;;;;;4975327;28;20177;-72
2022/07/28 00:20:01;;;;;;;1.60;1.20;;;14.00;99.90;;;;;;4975966;28;20467;-73
2022/07/28 00:22:26;;;;;;;1.40;1.20;;;14.00;99.90;;;;;;4978719;28;20252;-75
2022/07/28 00:24:52;;;;;;;2.40;1.23;;;13.90;99.90;;;;;;4987266;28;20476;-73
2022/07/28 00:27:17;;;;;;;2.80;1.40;;;13.80;99.90;;;;;;4986240;28;20185;-71
2022/07/28 00:29:43;;;;;;;3.03;1.20;;;13.80;99.90;;;;;;4985123;28;20177;-73
2022/07/28 00:32:09;;;;;;;2.23;2.03;;;13.80;99.90;;;;;;4984486;28;20177;-73
2022/07/28 00:34:35;;;;;;;2.63;1.30;;;13.70;99.90;;;;;;4974556;28;20827;-74
2022/07/28 00:37:01;;;;;;;2.00;1.20;;;13.80;99.90;;;;;;4974269;28;20210;-72
2022/07/28 00:39:26;;;;;;;4.07;1.50;;;13.80;99.90;;;;;;4974210;28;20781;-74
2022/07/28 00:41:52;;;;;;;1.67;1.10;;;13.80;99.90;;;;;;4972838;28;20220;-74
2022/07/28 00:44:17;;;;;;;2.30;1.47;;;13.70;99.90;;;;;;4974139;28;20198;-74
2022/07/28 00:46:43;;;;;;;2.77;1.47;;;13.70;99.90;;;;;;4973768;28;20248;-72
2022/07/28 00:49:09;;;;;;;1.80;1.70;;;13.60;99.90;;;;;;4974143;28;20190;-73
2022/07/28 00:51:35;;;;;;;2.23;1.20;;;13.60;99.90;;;;;;4973877;28;20408;-74
2022/07/28 00:54:01;;;;;;;1.97;1.17;;;13.60;99.90;;;;;;4973719;28;20556;-71
2022/07/28 00:56:27;;;;;;;3.60;1.40;;;13.70;99.90;;;;;;4973503;28;20613;-71
2022/07/28 00:58:53;;;;;;;2.60;1.33;;;13.70;99.90;;;;;;4973697;28;20517;-72
2022/07/28 01:01:19;;;;;;;5.33;1.83;;;13.60;99.90;;;;;;4973604;28;20169;-73
2022/07/28 01:03:50;;;;;;;2.37;1.40;;;13.60;99.90;;;;;;4973544;28;20472;-73
2022/07/28 01:06:30;;;;;;;2.40;1.50;;;13.50;99.90;;;;;;4973813;28;20891;-72
2022/07/28 01:09:29;;;;;;;2.97;1.20;;;13.50;99.90;;;;;;4973863;28;20414;-73
2022/07/28 01:11:55;;;;;;;3.40;1.63;;;13.50;99.90;;;;;;4973754;28;20413;-73
2022/07/28 01:14:37;;;;;;;1.37;1.27;;;13.40;99.90;;;;;;4973242;28;20475;-73
2022/07/28 01:17:13;;;;;;;2.43;1.37;;;13.30;99.90;;;;;;5016325;23;20704;-75
2022/07/28 01:19:48;;;;;;;2.40;1.40;;;13.30;99.90;;;;;;5011245;28;20422;-74
2022/07/28 01:22:19;;;;;;;2.43;1.83;;;13.30;99.90;;;;;;5013205;28;20391;-74
2022/07/28 01:25:09;;;;;;;1.80;1.30;;;13.20;99.90;;;;;;5013120;28;20435;-74
2022/07/28 01:27:58;;;;;;;3.27;1.60;;;13.10;99.90;;;;;;4993280;28;20407;-74
2022/07/28 01:30:38;;;;;;;5.60;1.40;;;13.10;99.90;;;;;;4994123;28;20443;-75
2022/07/28 01:33:40;;;;;;;1.40;1.30;;;13.20;99.90;;;;;;4996306;28;20452;-74
2022/07/28 01:36:09;;;;;;;1.27;1.17;;;13.20;99.90;;;;;;4943181;28;20950;-74
2022/07/28 01:38:37;;;;;;;1.33;1.23;;;13.10;99.90;;;;;;4993260;28;20429;-75
2022/07/28 01:41:07;;;;;;;3.27;1.30;;;13.00;99.90;;;;;;4993027;28;20493;-74
2022/07/28 01:43:36;;;;;;;3.20;1.40;;;13.00;99.90;;;;;;4993272;28;20925;-74
2022/07/28 01:46:03;;;;;;;3.30;1.27;;;12.90;99.90;;;;;;4990617;28;20416;-75
2022/07/28 01:48:30;;;;;;;2.37;1.70;;;12.90;99.90;;;;;;4993073;28;20471;-75
2022/07/28 01:50:56;;;;;;;2.37;1.37;;;12.80;99.90;;;;;;4993224;28;20397;-74
2022/07/28 01:53:23;;;;;;;1.30;1.20;;;12.80;99.90;;;;;;4992976;28;20419;-75
2022/07/28 01:55:51;;;;;;;2.23;2.03;;;12.70;99.90;;;;;;5002203;28;20515;-74
2022/07/28 01:58:20;;;;;;;4.40;1.50;;;12.70;99.90;;;;;;4993937;28;20415;-75
2022/07/28 02:00:50;;;;;;;2.70;1.90;;;12.70;99.90;;;;;;4992951;28;20914;-74
2022/07/28 02:03:20;;;;;;;1.73;1.40;;;12.60;99.90;;;;;;4992843;28;20412;-74
2022/07/28 02:05:49;;;;;;;2.63;1.20;;;12.60;99.90;;;;;;4992543;28;20435;-74
2022/07/28 02:08:17;;;;;;;2.60;1.80;;;12.60;99.90;;;;;;4992868;28;20404;-74
2022/07/28 02:11:38;;;;;;;1.63;1.53;;;12.70;99.90;;;;;;4992965;28;20468;-74
2022/07/28 02:13:31;;;;;;;2.33;1.20;;;12.60;99.90;;;;;;4992620;28;20475;-74
2022/07/28 02:15:58;;;;;;;3.60;1.43;;;12.80;99.90;;;;;;4992381;28;20783;-74
2022/07/28 02:18:24;;;;;;;2.83;1.83;;;12.70;99.90;;;;;;4992914;28;20408;-74
2022/07/28 02:20:51;;;;;;;1.80;1.70;;;12.70;99.90;;;;;;4993487;28;20774;-74
2022/07/28 02:23:20;;;;;;;4.53;1.47;;;12.60;99.90;;;;;;4992974;28;20400;-75
2022/07/28 02:25:48;;;;;;;2.60;1.60;;;12.70;99.90;;;;;;4992520;28;20432;-74
2022/07/28 02:28:14;;;;;;;1.87;1.67;;;12.70;99.90;;;;;;4992934;28;20488;-74
2022/07/28 02:30:46;;;;;;;1.53;1.43;;;12.70;99.90;;;;;;4992910;28;20406;-75
2022/07/28 02:33:16;;;;;;;3.40;1.50;;;12.60;99.90;;;;;;4992566;28;20899;-75
2022/07/28 02:35:48;;;;;;;2.53;1.27;;;12.60;99.90;;;;;;4992357;28;20455;-75
2022/07/28 02:38:19;;;;;;;4.47;2.33;;;12.70;99.90;;;;;;4992642;28;20412;-74
2022/07/28 02:40:48;;;;;;;2.23;2.03;;;12.60;99.90;;;;;;4993867;28;20400;-75
2022/07/28 02:43:19;;;;;;;2.70;1.77;;;12.50;99.90;;;;;;4996627;28;20814;-74
2022/07/28 02:45:48;;;;;;;1.87;1.50;;;12.50;99.90;;;;;;4996232;28;20428;-74
2022/07/28 02:48:18;;;;;;;3.40;2.37;;;12.50;99.90;;;;;;4996384;28;20780;-75
2022/07/28 02:50:45;;;;;;;1.70;1.57;;;12.40;99.90;;;;;;4996524;28;20396;-74
2022/07/28 02:53:13;;;;;;;4.13;1.70;;;12.30;99.90;;;;;;4995032;28;20424;-75
2022/07/28 02:55:39;;;;;;;2.70;1.20;;;12.40;99.90;;;;;;4995957;28;20896;-74
2022/07/28 02:58:07;;;;;;;2.23;1.43;;;12.30;99.90;;;;;;4996213;28;20416;-74
2022/07/28 03:00:34;;;;;;;1.50;1.37;;;12.40;99.90;;;;;;4996051;28;20503;-74
2022/07/28 03:02:59;;;;;;;3.97;1.70;;;12.30;99.90;;;;;;4995953;28;20428;-74
2022/07/28 03:05:27;;;;;;;3.23;1.90;;;12.20;99.90;;;;;;4995438;28;20591;-74
2022/07/28 03:07:53;;;;;;;2.47;1.90;;;12.20;99.90;;;;;;4995849;28;20165;-75
2022/07/28 03:10:24;;;;;;;1.77;1.67;;;12.20;99.90;;;;;;4995795;28;20466;-75
2022/07/28 03:12:50;;;;;;;1.70;1.60;;;12.20;99.90;;;;;;4995954;28;20572;-74
2022/07/28 03:15:16;;;;;;;5.33;2.13;;;12.10;99.90;;;;;;4995300;28;20418;-74
2022/07/28 03:17:42;;;;;;;3.47;1.47;;;12.10;99.90;;;;;;4995736;28;20499;-74
2022/07/28 03:20:08;;;;;;;2.13;1.93;;;12.00;99.90;;;;;;4995987;28;20180;-74
2022/07/28 03:22:34;;;;;;;1.63;1.53;;;12.00;99.90;;;;;;4995592;28;20176;-74
2022/07/28 03:25:01;;;;;;;3.17;1.50;;;12.00;99.90;;;;;;4995083;28;20946;-75
2022/07/28 03:27:34;;;;;;;1.30;1.20;;;12.00;99.90;;;;;;4995587;28;20543;-74
2022/07/28 03:30:07;;;;;;;2.03;1.60;;;12.10;99.90;;;;;;4995897;28;20416;-74
2022/07/28 03:32:35;;;;;;;3.90;1.90;;;12.00;99.90;;;;;;4995384;28;20902;-74
2022/07/28 03:35:01;;;;;;;4.30;2.33;;;12.00;99.90;;;;;;4995856;28;20769;-74
2022/07/28 03:37:34;;;;;;;1.97;1.77;;;12.10;99.90;;;;;;4999832;28;20491;-74
2022/07/28 03:40:01;;;;;;;2.80;1.50;;;12.20;99.90;;;;;;5004179;28;20165;-74
2022/07/28 03:42:28;;;;;;;3.17;1.80;;;12.40;99.90;;;;;;5003781;28;20832;-74
2022/07/28 03:44:54;;;;;;;2.67;2.30;;;12.30;99.90;;;;;;4996164;28;20474;-74
2022/07/28 03:47:22;;;;;;;5.20;1.80;;;12.30;99.90;;;;;;4994887;28;20950;-74
2022/07/28 03:49:48;;;;;;;9.30;2.57;;;12.40;99.90;;;;;;4995038;28;20504;-74
2022/07/28 03:52:14;;;;;;;1.77;1.60;;;12.50;99.90;;;;;;4994404;28;20840;-74
2022/07/28 03:54:39;;;;;;;5.47;2.00;;;12.70;99.90;;;;;;4994943;28;20192;-74
2022/07/28 03:57:05;;;;;;;2.80;1.70;;;12.70;99.90;;;;;;4995232;28;20288;-74
2022/07/28 03:59:30;;;;;;;5.03;1.63;;;12.70;99.90;;;;;;4995127;28;20698;-74
2022/07/28 04:01:56;;;;;;;3.90;2.00;;;12.60;99.90;;;;;;4994764;28;20728;-74
2022/07/28 04:04:22;;;;;;;2.50;2.10;;;12.60;99.90;;;;;;4994545;28;20200;-74
2022/07/28 04:06:48;;;;;;;2.03;1.83;;;12.60;99.90;;;;;;4994505;28;20554;-74
2022/07/28 04:09:14;;;;;;;4.03;2.70;;;12.60;99.90;;;;;;4995011;28;20412;-74
2022/07/28 04:11:40;;;;;;;3.40;2.03;;;12.60;99.90;;;;;;4994767;28;20173;-75
2022/07/28 04:14:06;;;;;;;6.83;1.87;;;12.70;99.90;;;;;;4994825;28;20404;-74
2022/07/28 04:16:31;;;;;;;3.03;1.50;;;12.80;99.90;;;;;;4994345;28;20452;-73
2022/07/28 04:18:57;;;;;;;8.70;2.67;;;12.80;99.90;;;;;;4994461;28;20191;-74
2022/07/28 04:21:23;;;;;;;5.23;2.70;;;13.00;99.90;;;;;;4994691;28;20173;-74
2022/07/28 04:23:49;;;;;;;5.37;2.60;;;13.00;99.90;;;;;;4994492;28;20196;-74
2022/07/28 04:26:16;;;;;;;2.90;1.90;;;13.10;99.90;;;;;;4994222;28;20204;-74
2022/07/28 04:28:42;;;;;;;1.97;1.57;;;13.20;99.90;;;;;;4994632;28;20415;-74
2022/07/28 04:31:07;;;;;;;4.50;2.10;;;13.20;99.90;;;;;;4994484;28;20408;-74
2022/07/28 04:33:33;;;;;;;6.33;2.70;;;13.30;99.90;;;;;;4993113;28;20420;-74
2022/07/28 04:36:00;;;;;;;3.63;2.70;;;13.40;99.90;;;;;;4995099;28;20878;-75
2022/07/28 04:38:26;;;;;;;4.17;2.50;;;13.50;99.90;;;;;;4995255;28;20563;-74
2022/07/28 04:40:52;;;;;;;4.33;2.27;;;13.60;99.90;;;;;;4996552;28;20419;-74
2022/07/28 04:43:18;;;;;;;3.10;2.23;;;13.70;99.90;;;;;;4997543;28;20726;-75
2022/07/28 04:45:47;;;;;;;4.33;2.77;;;13.70;99.90;;;;;;4994048;28;20180;-75
2022/07/28 04:48:13;;;;;;;3.23;2.40;;;13.80;99.90;;;;;;4994008;28;20166;-74
2022/07/28 04:50:43;;;;;;;4.97;3.17;;;13.80;99.90;;;;;;4994587;28;20908;-73
2022/07/28 04:53:10;;;;;;;2.53;2.33;;;13.90;99.90;;;;;;4994419;28;20384;-75
2022/07/28 04:55:37;;;;;;;5.00;2.43;;;14.00;99.90;;;;;;4993519;28;20514;-74
2022/07/28 04:58:04;;;;;;;3.80;2.80;;;14.00;99.90;;;;;;4993891;28;20419;-74
2022/07/28 05:00:29;;;;;;;4.50;2.10;;;14.10;99.90;;;;;;4992535;28;20420;-74
2022/07/28 05:02:57;;;;;;;2.27;2.07;;;14.20;99.90;;;;;;4992899;28;20424;-75
2022/07/28 05:05:22;;;;;;;3.57;2.23;;;14.40;99.90;;;;;;4993484;28;20200;-74
2022/07/28 05:07:48;;;;;;;1.97;1.80;;;14.40;99.90;;;;;;4993807;28;20435;-74
2022/07/28 05:10:14;;;;;;;1.77;1.67;;;14.60;99.90;;;;;;4994130;28;20165;-75
2022/07/28 05:12:40;;;;;;;5.37;2.40;;;15.00;99.90;;;;;;4993983;28;20708;-75
2022/07/28 05:15:07;;;;;;;4.13;1.97;;;15.50;99.90;;;;;;4994112;28;20194;-74
2022/07/28 05:17:32;;;;;;;3.27;2.20;;;15.70;99.90;;;;;;4993526;28;20194;-74
2022/07/28 05:19:58;;;;;;;2.57;1.70;;;16.10;99.90;;;;;;4993649;28;21202;-74
2022/07/28 05:22:24;;;;;;;3.87;1.83;;;16.70;99.90;;;;;;4993624;28;20596;-74
2022/07/28 05:24:49;;;;;;;6.50;2.80;;;16.80;99.90;;;;;;4992026;28;20731;-76
2022/07/28 05:27:15;;;;;;;3.47;2.10;;;16.80;99.90;;;;;;4994656;28;20278;-74
2022/07/28 05:29:40;;;;;;;5.37;1.87;;;17.10;99.90;;;;;;5001988;28;20558;-75
2022/07/28 05:32:07;;;;;;;2.10;1.90;;;17.50;99.90;;;;;;4995655;28;20691;-75
2022/07/28 05:34:33;;;;;;;3.80;1.80;;;17.60;99.90;;;;;;4993587;28;20315;-75
2022/07/28 05:37:03;;;;;;;6.90;2.13;;;17.70;99.90;;;;;;4993535;28;20922;-74
2022/07/28 05:39:31;;;;;;;2.40;1.40;;;18.70;99.90;;;;;;4993534;28;20408;-75
2022/07/28 05:42:00;;;;;;;2.03;1.17;;;18.80;99.90;;;;;;4992133;28;20426;-75
2022/07/28 05:44:25;;;;;;;1.80;1.33;;;19.70;99.90;;;;;;4993157;28;20480;-75
2022/07/28 05:46:51;;;;;;;2.00;1.33;;;20.50;99.90;;;;;;4992888;28;20431;-75
2022/07/28 05:49:16;;;;;;;2.50;1.50;;;20.00;99.90;;;;;;4993357;28;20186;-75
2022/07/28 05:51:42;;;;;;;4.03;1.80;;;19.60;99.90;;;;;;4993196;28;20167;-75
2022/07/28 05:54:08;;;;;;;3.90;1.57;;;20.10;99.90;;;;;;4993159;28;20230;-75
2022/07/28 05:56:33;;;;;;;3.37;1.40;;;19.50;99.90;;;;;;4992768;28;20250;-74
2022/07/28 05:58:59;;;;;;;4.10;2.10;;;19.80;99.90;;;;;;4993005;28;20185;-75
2022/07/28 06:01:24;;;;;;;1.80;1.67;;;20.40;99.90;;;;;;4992814;28;20666;-75
2022/07/28 06:03:51;;;;;;;3.17;2.87;;;19.70;99.90;;;;;;4992711;28;20251;-74
2022/07/28 06:06:18;;;;;;;4.57;1.43;;;20.80;99.90;;;;;;4992809;28;20274;-75
2022/07/28 06:08:45;;;;;;;8.60;3.90;;;21.30;99.90;;;;;;4993264;28;20406;-74
2022/07/28 06:11:12;;;;;;;4.60;1.90;;;21.20;99.90;;;;;;4993063;28;20917;-74
2022/07/28 06:13:38;;;;;;;2.43;1.30;;;20.50;99.90;;;;;;4992765;28;20412;-74
2022/07/28 06:16:05;;;;;;;3.40;2.10;;;20.90;99.90;;;;;;4991106;28;20456;-74
2022/07/28 06:18:31;;;;;;;2.73;1.53;;;21.00;99.90;;;;;;4992798;28;20908;-75
2022/07/28 06:20:57;;;;;;;1.60;1.00;;;21.00;99.90;;;;;;4992779;28;20419;-74
2022/07/28 06:23:23;;;;;;;1.30;1.00;;;21.40;99.90;;;;;;4992908;28;20176;-74
2022/07/28 06:25:49;;;;;;;3.20;1.43;;;21.50;99.90;;;;;;4992708;28;20430;-75
2022/07/28 06:28:17;;;;;;;1.67;1.03;;;22.10;99.90;;;;;;4992680;28;20412;-75
2022/07/28 06:30:43;;;;;;;2.47;1.10;;;21.40;99.90;;;;;;4992853;28;20419;-74
2022/07/28 06:33:09;;;;;;;2.50;1.17;;;21.10;99.90;;;;;;4992535;28;20407;-74
2022/07/28 06:35:34;;;;;;;1.50;1.10;;;22.40;99.20;;;;;;4992217;28;20193;-74
2022/07/28 06:38:00;;;;;;;6.57;1.20;;;22.70;98.10;;;;;;4992528;28;20235;-74
2022/07/28 06:40:26;;;;;;;3.57;1.00;;;22.10;98.00;;;;;;4992299;28;20172;-74
2022/07/28 06:42:51;;;;;;;1.70;1.10;;;21.80;98.80;;;;;;4987897;28;20205;-74
2022/07/28 06:45:17;;;;;;;3.43;1.37;;;22.40;97.90;;;;;;4977378;28;20496;-74
2022/07/28 06:47:43;;;;;;;5.40;1.30;;;22.30;98.10;;;;;;4973514;28;20188;-75
2022/07/28 06:50:09;;;;;;;4.40;1.13;;;23.70;96.60;;;;;;4973411;28;20419;-75
2022/07/28 06:52:37;;;;;;;2.07;1.33;;;23.40;95.20;;;;;;4973011;28;20177;-74
2022/07/28 06:55:06;;;;;;;1.87;1.17;;;22.80;96.10;;;;;;4974001;28;20779;-74
2022/07/28 06:57:35;;;;;;;4.03;1.23;;;22.50;95.80;;;;;;4973994;28;20413;-74
2022/07/28 07:00:06;;;;;;;2.93;1.17;;;22.90;94.70;;;;;;4973736;28;20492;-77
2022/07/28 07:02:36;;;;;;;5.80;1.40;;;23.20;95.20;;;;;;4983700;28;20507;-77
2022/07/28 07:05:01;;;;;;;2.47;1.10;;;22.50;95.80;;;;;;4992075;28;20495;-74
2022/07/28 07:07:27;;;;;;;1.47;1.00;;;22.40;95.60;;;;;;4992164;28;20423;-74
2022/07/28 07:09:52;;;;;;;1.60;1.30;;;21.70;96.00;;;;;;4992097;28;20697;-74
2022/07/28 07:12:18;;;;;;;6.30;1.33;;;23.30;93.90;;;;;;4992214;28;20187;-74
2022/07/28 07:14:43;;;;;;;3.03;1.53;;;23.80;93.30;;;;;;4994161;28;20662;-74
2022/07/28 07:17:09;;;;;;;5.50;1.70;;;22.00;94.60;;;;;;5047476;23;20219;-66
2022/07/28 07:19:35;;;;;;;2.43;1.20;;;21.90;96.40;;;;;;5010696;28;20207;-66
2022/07/28 07:22:00;;;;;;;6.20;1.90;;;22.50;95.20;;;;;;5010619;28;20226;-65
2022/07/28 07:24:26;;;;;;;1.30;1.20;;;22.40;96.00;;;;;;5010341;28;20287;-66
2022/07/28 07:26:51;;;;;;;2.07;1.40;;;22.50;95.50;;;;;;5011661;28;20216;-65
2022/07/28 07:29:18;;;;;;;1.77;1.30;;;22.90;96.20;;;;;;5014053;28;20163;-65
2022/07/28 07:31:44;;;;;;;4.60;1.23;;;22.30;94.50;;;;;;5014186;28;20715;-65
2022/07/28 07:34:09;;;;;;;1.80;1.37;;;22.40;96.20;;;;;;5013660;28;20418;-65
2022/07/28 07:36:35;;;;;;;3.07;1.80;;;22.70;94.40;;;;;;5013771;28;20273;-66
2022/07/28 07:39:00;;;;;;;1.67;1.17;;;23.90;94.00;;;;;;5014019;28;20179;-65
2022/07/28 07:41:26;;;;;;;2.47;1.30;;;23.60;93.70;;;;;;5014290;28;20171;-66
2022/07/28 07:43:51;;;;;;;3.30;1.17;;;23.60;93.10;;;;;;4997943;28;20723;-66
2022/07/28 07:46:17;;;;;;;5.40;1.40;;;22.90;94.50;;;;;;4994430;28;20268;-64
2022/07/28 07:48:43;;;;;;;5.07;1.63;;;22.70;94.20;;;;;;4994076;28;20173;-65
2022/07/28 07:51:09;;;;;;;1.77;1.13;;;25.10;92.20;;;;;;5000255;28;20179;-65
2022/07/28 07:53:34;;;;;;;4.43;1.20;;;23.50;92.00;;;;;;5005387;28;20176;-65
2022/07/28 07:56:00;;;;;;;2.20;1.50;;;24.00;91.70;;;;;;5013291;28;20227;-65
2022/07/28 07:58:27;;;;;;;2.83;0.97;;;25.30;90.10;;;;;;5013312;28;20214;-64
2022/07/28 08:00:52;;;;;;;1.30;1.03;;;25.20;89.30;;;;;;5013611;28;20176;-64
2022/07/28 08:03:18;;;;;;;2.40;1.13;;;23.90;91.30;;;;;;5013390;28;20979;-65
2022/07/28 08:05:45;;;;;;;2.77;1.37;;;24.50;91.80;;;;;;5013087;28;20196;-65
2022/07/28 08:08:10;;;;;;;2.40;1.10;;;24.90;89.80;;;;;;5013329;28;20418;-65
2022/07/28 08:10:37;;;;;;;2.20;1.07;;;24.00;91.00;;;;;;5013387;28;20886;-65
2022/07/28 08:13:05;;;;;;;1.53;0.97;;;22.60;91.50;;;;;;5013142;28;20213;-65
2022/07/28 08:15:30;;;;;;;2.67;1.03;;;21.70;92.60;;;;;;5013067;28;20418;-65
2022/07/28 08:17:56;;;;;;;3.07;1.13;;;21.90;93.70;;;;;;4997621;28;21025;-65
2022/07/28 08:20:22;;;;;;;5.30;1.20;;;24.20;92.00;;;;;;4993534;28;20902;-64
2022/07/28 08:22:49;;;;;;;2.83;1.37;;;23.10;91.00;;;;;;4993972;28;20215;-64
2022/07/28 08:25:14;;;;;;;15.77;10.40;;;23.10;92.90;;;;;;4993889;28;20272;-64
2022/07/28 08:27:40;;;;;;;3.20;1.47;;;24.30;90.30;;;;;;4994221;28;20447;-66
2022/07/28 08:30:06;;;;;;;1.83;1.23;;;24.20;85.50;;;;;;4994911;28;20173;-65
2022/07/28 08:32:32;;;;;;;3.93;1.23;;;23.10;91.10;;;;;;4995239;28;20176;-65
2022/07/28 08:34:57;;;;;;;11.73;1.60;;;23.00;90.90;;;;;;4993806;28;20416;-66
2022/07/28 08:37:23;;;;;;;3.53;1.20;;;22.90;86.50;;;;;;4993624;28;20546;-66
2022/07/28 08:39:49;;;;;;;2.20;1.10;;;23.00;90.50;;;;;;4993284;28;20172;-66
2022/07/28 08:42:19;;;;;;;2.20;0.90;;;24.30;86.90;;;;;;4993042;28;20276;-66
2022/07/28 08:44:51;;;;;;;2.53;1.27;;;22.50;88.60;;;;;;4992817;28;20204;-65
2022/07/28 08:47:18;;;;;;;1.63;1.17;;;23.10;90.50;;;;;;4992896;28;20805;-65
2022/07/28 08:49:46;;;;;;;4.53;0.93;;;23.70;91.00;;;;;;4992838;28;20454;-65
2022/07/28 08:52:12;;;;;;;2.37;1.10;;;25.20;85.80;;;;;;4993002;28;20404;-64
2022/07/28 08:54:44;;;;;;;1.33;1.00;;;23.70;88.60;;;;;;4991339;28;20404;-65
2022/07/28 08:57:15;;;;;;;2.27;1.50;;;22.60;89.20;;;;;;4992675;28;20435;-66
2022/07/28 08:59:41;;;;;;;3.40;1.17;;;24.10;87.60;;;;;;4992984;28;20412;-65
2022/07/28 09:02:11;;;;;;;3.20;1.53;;;24.90;83.80;;;;;;4992501;28;20403;-65
2022/07/28 09:04:38;;;;;;;2.30;1.23;;;24.80;83.60;;;;;;4992817;28;20937;-65
2022/07/28 09:07:05;;;;;;;0.87;0.73;;;24.70;84.20;;;;;;4992784;28;20426;-65
2022/07/28 09:09:31;;;;;;;2.30;0.90;;;23.60;85.20;;;;;;4992844;28;20408;-65
2022/07/28 09:11:57;;;;;;;3.97;0.90;;;23.20;88.60;;;;;;4992560;28;20779;-65
2022/07/28 09:14:24;;;;;;;9.03;1.47;;;24.00;87.80;;;;;;4992561;28;20411;-67
2022/07/28 09:16:50;;;;;;;2.10;1.57;;;23.00;90.60;;;;;;4991993;28;20204;-65
2022/07/28 09:19:15;;;;;;;9.13;1.43;;;23.30;89.00;;;;;;4992543;28;20423;-65
2022/07/28 09:21:41;;;;;;;2.13;0.90;;;24.20;85.50;;;;;;4992332;28;20165;-65
2022/07/28 09:24:07;;;;;;;8.43;1.53;;;22.90;85.60;;;;;;4992366;28;20300;-64
2022/07/28 09:26:33;;;;;;;2.27;0.87;;;23.10;88.40;;;;;;4992156;28;20446;-65
2022/07/28 09:29:00;;;;;;;4.47;1.60;;;23.30;88.20;;;;;;4997301;28;20178;-66
2022/07/28 09:31:27;;;;;;;1.40;1.20;;;24.40;85.40;;;;;;5003608;28;20176;-65
2022/07/28 09:34:01;;;;;;;2.77;1.23;;;23.20;84.70;;;;;;5011976;28;20402;-66
2022/07/28 09:36:28;;;;;;;4.83;1.30;;;23.10;86.00;;;;;;5011485;28;20419;-64
2022/07/28 09:38:55;;;;;;;1.93;0.90;;;23.90;83.20;;;;;;5012048;28;20439;-66
2022/07/28 09:41:21;;;;;;;1.40;0.93;;;23.80;84.00;;;;;;5011715;28;20422;-66
2022/07/28 09:43:48;;;;;;;2.80;1.00;;;24.40;81.40;;;;;;5007077;28;20873;-66
2022/07/28 09:46:15;;;;;;;1.93;1.23;;;24.30;83.40;;;;;;4992011;28;20771;-66
2022/07/28 09:48:55;;;;;;;1.50;1.03;;;23.80;85.00;;;;;;4991895;28;20427;-66
2022/07/28 09:51:21;;;;;;;1.30;0.93;;;23.60;87.00;;;;;;4993155;28;20778;-66
2022/07/28 09:53:47;;;;;;;4.60;1.40;;;22.60;88.30;;;;;;4992179;28;20404;-66
2022/07/28 09:56:12;;;;;;;4.83;1.43;;;23.70;86.60;;;;;;4991582;28;20172;-66
2022/07/28 09:58:39;;;;;;;1.70;1.20;;;24.50;84.40;;;;;;4991891;28;20212;-65
2022/07/28 10:01:14;;;;;;;2.23;1.07;;;24.00;82.60;;;;;;4992077;28;20172;-66
2022/07/28 10:03:41;;;;;;;3.03;1.77;;;24.50;85.30;;;;;;4991662;28;20402;-66
2022/07/28 10:06:13;;;;;;;1.80;1.13;;;23.30;86.00;;;;;;4991828;28;21029;-66
2022/07/28 10:08:47;;;;;;;6.27;1.30;;;24.00;84.10;;;;;;4991569;28;20412;-65
2022/07/28 10:11:19;;;;;;;1.83;1.30;;;23.40;85.20;;;;;;4991867;28;20462;-66
2022/07/28 10:13:51;;;;;;;1.77;1.20;;;22.90;86.40;;;;;;4987567;28;20794;-65
2022/07/28 10:16:17;;;;;;;7.63;1.80;;;22.90;87.50;;;;;;4973015;28;20818;-65
2022/07/28 10:18:43;;;;;;;1.30;1.10;;;22.80;86.80;;;;;;4973101;28;20414;-65
2022/07/28 10:21:12;;;;;;;3.23;2.80;;;22.60;87.70;;;;;;4973742;28;20403;-65
2022/07/28 10:23:38;;;;;;;2.03;1.00;;;22.70;88.90;;;;;;4973052;28;20414;-65
2022/07/28 10:26:10;;;;;;;3.40;1.50;;;23.40;84.70;;;;;;4972869;28;20411;-65
2022/07/28 10:28:38;;;;;;;1.40;1.27;;;23.40;85.40;;;;;;4982040;28;20411;-65
2022/07/28 10:31:08;;;;;;;13.83;9.80;;;24.00;84.20;;;;;;4991415;28;20753;-65
2022/07/28 10:33:38;;;;;;;10.77;6.17;;;23.20;85.40;;;;;;4991365;28;20474;-65
2022/07/28 10:36:05;;;;;;;8.33;2.87;;;24.20;83.50;;;;;;4991006;28;20498;-65
2022/07/28 10:38:34;;;;;;;5.43;4.17;;;23.70;82.70;;;;;;4991618;28;20416;-65
2022/07/28 10:41:07;;;;;;;3.67;2.00;;;22.90;86.30;;;;;;4991519;28;20403;-65
2022/07/28 10:43:34;;;;;;;6.83;1.43;;;22.90;85.80;;;;;;4993750;28;20470;-65
2022/07/28 10:46:02;;;;;;;1.80;1.70;;;22.80;86.50;;;;;;4997949;28;20440;-65
2022/07/28 10:48:28;;;;;;;2.67;1.80;;;23.00;85.90;;;;;;4991063;28;21152;-65
2022/07/28 10:50:54;;;;;;;2.57;1.53;;;22.90;85.00;;;;;;4992222;28;20410;-66
2022/07/28 10:53:35;;;;;;;5.10;2.03;;;22.50;85.30;;;;;;4991304;28;20225;-64
2022/07/28 10:56:14;;;;;;;3.37;1.30;;;22.80;85.90;;;;;;4991242;28;20404;-64
2022/07/28 10:58:57;;;;;;;4.53;2.17;;;23.80;82.70;;;;;;4991380;28;20768;-65
2022/07/28 11:01:34;;;;;;;5.03;2.23;;;23.80;82.20;;;;;;4992283;28;20469;-64
2022/07/28 11:03:59;;;;;;;4.37;2.70;;;23.60;84.00;;;;;;4994991;28;20818;-65
2022/07/28 11:06:30;;;;;;;3.57;1.93;;;23.40;83.40;;;;;;4994810;28;20438;-65
2022/07/28 11:09:12;;;;;;;2.20;1.17;;;23.10;82.90;;;;;;5006639;28;20201;-66
2022/07/28 11:12:07;;;;;;;4.90;1.33;;;22.60;83.90;;;;;;5014558;28;20403;-65
2022/07/28 11:14:35;;;;;;;1.57;0.90;;;23.40;81.20;;;;;;4982358;28;20430;-64
2022/07/28 11:17:03;;;;;;;1.90;1.30;;;23.50;80.10;;;;;;4994387;28;20461;-65
2022/07/28 11:19:50;;;;;;;3.20;1.50;;;23.60;79.70;;;;;;4994628;28;20905;-64
2022/07/28 11:22:23;;;;;;;1.80;0.90;;;24.00;79.30;;;;;;4994853;28;20414;-65
2022/07/28 11:25:01;;;;;;;2.03;1.20;;;23.80;78.80;;;;;;4994392;28;20466;-66
2022/07/28 11:27:41;;;;;;;2.23;1.00;;;22.80;81.30;;;;;;4994519;28;20488;-66
2022/07/28 11:30:31;;;;;;;2.87;1.43;;;23.20;82.50;;;;;;4994261;28;21056;-65
2022/07/28 11:32:57;;;;;;;1.50;1.00;;;23.60;82.20;;;;;;4994433;28;20897;-65
2022/07/28 11:35:26;;;;;;;2.53;1.83;;;23.60;81.90;;;;;;4994041;28;20446;-65
2022/07/28 11:38:01;;;;;;;1.97;1.77;;;23.00;78.40;;;;;;4994333;28;20227;-65
2022/07/28 11:40:35;;;;;;;1.97;1.40;;;23.40;79.00;;;;;;4994192;28;20922;-66
2022/07/28 11:43:19;;;;;;;4.60;3.47;;;23.80;76.60;;;;;;4994128;28;20446;-65
2022/07/28 11:46:05;;;;;;;1.60;1.20;;;24.10;78.40;;;;;;4986818;28;20588;-65
2022/07/28 11:48:32;;;;;;;1.23;1.10;;;23.70;77.20;;;;;;4983469;28;20422;-65
2022/07/28 11:51:03;;;;;;;2.33;0.80;;;23.50;76.10;;;;;;4994600;28;20430;-66
2022/07/28 11:53:47;;;;;;;2.23;0.97;;;22.70;74.90;;;;;;4993902;28;20796;-64
2022/07/28 11:56:20;;;;;;;1.23;1.13;;;23.20;75.80;;;;;;4993412;28;20426;-64
2022/07/28 11:58:54;;;;;;;3.77;1.47;;;23.10;75.60;;;;;;4994064;28;20422;-64
2022/07/28 12:01:20;;;;;;;5.83;1.50;;;22.90;79.60;;;;;;4994023;28;20405;-65
2022/07/28 12:03:48;;;;;;;1.40;1.30;;;22.60;80.60;;;;;;4993562;28;20569;-65
2022/07/28 12:06:14;;;;;;;2.83;1.20;;;22.60;81.80;;;;;;4993239;28;20163;-65
2022/07/28 12:09:03;;;;;;;3.63;1.20;;;22.80;81.90;;;;;;4993832;28;20437;-65
2022/07/28 12:11:36;;;;;;;8.10;1.40;;;22.50;82.00;;;;;;4993876;28;20407;-65
2022/07/28 12:14:11;;;;;;;1.10;1.00;;;22.00;81.30;;;;;;4993437;28;20426;-65
2022/07/28 12:16:39;;;;;;;2.67;1.23;;;22.10;81.50;;;;;;4993488;28;20616;-65
2022/07/28 12:19:06;;;;;;;2.20;1.50;;;22.30;81.90;;;;;;4993459;28;20492;-65
2022/07/28 12:21:35;;;;;;;3.53;2.00;;;22.60;81.50;;;;;;4993890;28;20439;-65
2022/07/28 12:24:01;;;;;;;1.00;0.90;;;23.30;79.90;;;;;;4993602;28;20801;-64
2022/07/28 12:26:34;;;;;;;2.87;1.20;;;22.90;77.50;;;;;;4993027;28;20453;-64
2022/07/28 12:29:00;;;;;;;3.77;1.67;;;23.20;78.50;;;;;;4993822;28;20168;-65
2022/07/28 12:31:31;;;;;;;1.10;1.00;;;22.80;77.60;;;;;;4993333;28;20493;-64
2022/07/28 12:33:57;;;;;;;5.10;1.60;;;22.10;80.10;;;;;;4993394;28;20418;-65
2022/07/28 12:36:27;;;;;;;2.20;1.63;;;22.60;82.30;;;;;;4992907;28;20556;-65
2022/07/28 12:38:53;;;;;;;5.67;1.30;;;23.10;81.00;;;;;;4993175;28;20446;-66
2022/07/28 12:41:19;;;;;;;3.07;1.67;;;22.90;79.40;;;;;;4993456;28;20502;-66
2022/07/28 12:43:49;;;;;;;3.63;1.27;;;22.90;79.20;;;;;;4993110;28;20667;-64
2022/07/28 12:46:20;;;;;;;4.70;1.20;;;22.40;79.10;;;;;;5000873;28;20460;-64
2022/07/28 12:48:47;;;;;;;1.67;1.17;;;22.10;79.70;;;;;;5012337;28;20412;-65
2022/07/28 12:51:41;;;;;;;2.03;1.80;;;22.10;79.50;;;;;;4999338;28;20418;-65